createdAt,value
2017-09-04T00:01:33.706Z,71.50
2017-09-04T00:04:03.719Z,71.50
2017-09-04T00:06:33.824Z,71.60
2017-09-04T00:09:03.938Z,71.60
2017-09-04T00:11:34.705Z,71.70
2017-09-04T00:14:04.284Z,71.70
2017-09-04T00:16:33.735Z,71.80
2017-09-04T00:19:03.638Z,71.80
2017-09-04T00:21:34.554Z,71.90
2017-09-04T00:24:05.516Z,72.00
2017-09-04T00:26:37.703Z,71.80
2017-09-04T00:29:08.636Z,71.90
2017-09-04T00:31:38.749Z,71.90
2017-09-04T00:34:08.034Z,72.00
2017-09-04T00:36:37.634Z,72.00
2017-09-04T00:39:07.243Z,71.90
2017-09-04T00:41:36.786Z,72.00
2017-09-04T00:44:06.847Z,71.90
2017-09-04T00:46:36.466Z,72.00
2017-09-04T00:49:06.251Z,72.00
2017-09-04T00:51:36.075Z,72.30
2017-09-04T00:54:05.618Z,72.30
2017-09-04T00:56:35.250Z,72.30
2017-09-04T00:59:05.222Z,72.40
2017-09-04T01:01:35.199Z,72.50
2017-09-04T01:04:04.613Z,72.70
2017-09-04T01:06:34.527Z,72.70
2017-09-04T01:09:04.355Z,72.70
2017-09-04T01:11:34.557Z,72.90
2017-09-04T01:14:04.025Z,73.20
2017-09-04T01:16:33.690Z,73.30
2017-09-04T01:19:03.692Z,73.30
2017-09-04T01:21:32.995Z,73.50
2017-09-04T01:24:02.746Z,73.40
2017-09-04T01:26:32.149Z,73.40
2017-09-04T01:29:01.853Z,73.30
2017-09-04T01:31:31.620Z,73.60
2017-09-04T01:34:01.158Z,73.70
2017-09-04T01:36:30.394Z,73.60
2017-09-04T01:38:59.850Z,73.50
2017-09-04T01:41:29.716Z,73.40
2017-09-04T01:43:59.137Z,73.40
2017-09-04T01:46:28.731Z,73.30
2017-09-04T01:48:58.216Z,73.30
2017-09-04T01:51:41.628Z,73.30
2017-09-04T01:54:12.982Z,73.30
2017-09-04T01:56:44.675Z,73.30
2017-09-04T01:59:14.230Z,73.20
2017-09-04T02:01:44.830Z,73.20
2017-09-04T02:04:14.597Z,73.10
2017-09-04T02:06:44.353Z,72.90
2017-09-04T02:09:14.485Z,72.70
2017-09-04T02:11:45.164Z,72.80
2017-09-04T02:14:15.231Z,72.90
2017-09-04T02:16:45.106Z,73.00
2017-09-04T02:19:15.183Z,73.10
2017-09-04T02:21:45.045Z,73.20
2017-09-04T02:24:15.014Z,73.30
2017-09-04T02:26:46.166Z,73.40
2017-09-04T02:29:17.239Z,73.30
2017-09-04T02:31:47.401Z,73.40
2017-09-04T02:34:17.099Z,73.40
2017-09-04T02:36:48.511Z,73.50
2017-09-04T02:39:18.431Z,73.50
2017-09-04T02:41:48.770Z,73.50
2017-09-04T02:44:19.674Z,73.60
2017-09-04T02:46:48.946Z,73.70
2017-09-04T02:49:19.763Z,73.70
2017-09-04T02:51:49.744Z,73.80
2017-09-04T02:54:19.759Z,73.70
2017-09-04T02:56:51.530Z,73.80
2017-09-04T02:59:22.477Z,73.70
2017-09-04T03:01:52.745Z,73.70
2017-09-04T03:04:22.658Z,73.60
2017-09-04T03:06:53.404Z,73.60
2017-09-04T03:09:23.231Z,73.70
2017-09-04T03:11:53.046Z,73.60
2017-09-04T03:14:22.692Z,73.60
2017-09-04T03:16:52.573Z,73.70
2017-09-04T03:19:22.205Z,73.80
2017-09-04T03:21:52.022Z,73.90
2017-09-04T03:24:21.777Z,73.90
2017-09-04T03:26:51.871Z,73.90
2017-09-04T03:29:21.414Z,73.90
2017-09-04T03:31:51.608Z,74.00
2017-09-04T03:34:21.625Z,74.10
2017-09-04T03:36:52.550Z,74.10
2017-09-04T03:39:23.375Z,74.10
2017-09-04T03:41:52.971Z,74.00
2017-09-04T03:44:22.837Z,74.10
2017-09-04T03:46:52.522Z,73.90
2017-09-04T03:49:23.879Z,73.70
2017-09-04T03:51:55.268Z,73.70
2017-09-04T03:54:25.665Z,73.60
2017-09-04T03:56:57.802Z,73.70
2017-09-04T03:59:29.561Z,73.50
2017-09-04T04:02:00.017Z,73.40
2017-09-04T04:04:30.081Z,73.20
2017-09-04T04:06:59.952Z,73.10
2017-09-04T04:09:31.612Z,73.00
2017-09-04T04:12:01.474Z,73.10
2017-09-04T04:14:31.210Z,73.20
2017-09-04T04:17:01.013Z,73.30
2017-09-04T04:19:31.804Z,73.50
2017-09-04T04:22:02.468Z,73.60
2017-09-04T04:24:32.272Z,73.60
2017-09-04T04:27:02.021Z,73.70
2017-09-04T04:29:31.976Z,73.70
2017-09-04T04:32:04.192Z,73.70
2017-09-04T04:34:34.288Z,73.80
2017-09-04T04:37:05.961Z,73.90
2017-09-04T04:39:35.933Z,74.20
2017-09-04T04:42:05.540Z,74.40
2017-09-04T04:44:35.637Z,74.40
2017-09-04T04:47:05.687Z,74.40
2017-09-04T04:49:35.730Z,74.40
2017-09-04T04:52:07.779Z,74.50
2017-09-04T04:54:38.072Z,74.60
2017-09-04T04:57:08.209Z,74.70
2017-09-04T04:59:38.157Z,74.80
2017-09-04T05:02:07.983Z,74.70
2017-09-04T05:04:37.664Z,74.70
2017-09-04T05:07:07.164Z,74.60
2017-09-04T05:09:36.530Z,74.60
2017-09-04T05:12:06.290Z,74.70
2017-09-04T05:14:35.616Z,74.70
2017-09-04T05:17:05.485Z,74.70
2017-09-04T05:19:36.041Z,74.70
2017-09-04T05:22:05.795Z,74.90
2017-09-04T05:24:36.099Z,74.90
2017-09-04T05:27:08.682Z,74.80
2017-09-04T05:29:41.348Z,74.60
2017-09-04T05:32:11.038Z,74.60
2017-09-04T05:34:41.316Z,74.40
2017-09-04T05:37:11.124Z,74.20
2017-09-04T05:39:40.872Z,74.30
2017-09-04T05:42:10.939Z,74.40
2017-09-04T05:44:38.662Z,74.50
2017-09-04T05:47:06.162Z,74.70
2017-09-04T05:49:33.672Z,74.90
2017-09-04T05:52:01.146Z,74.70
2017-09-04T05:54:28.803Z,74.80
2017-09-04T05:56:56.275Z,74.90
2017-09-04T05:59:23.719Z,75.30
2017-09-04T06:01:51.180Z,75.60
2017-09-04T06:04:18.655Z,76.20
2017-09-04T06:06:46.138Z,76.50
2017-09-04T06:09:14.089Z,76.70
2017-09-04T06:11:41.558Z,76.80
2017-09-04T06:14:09.025Z,77.00
2017-09-04T06:16:36.574Z,77.20
2017-09-04T06:19:04.256Z,77.20
2017-09-04T06:21:31.742Z,77.20
2017-09-04T06:23:59.222Z,77.10
2017-09-04T06:26:26.687Z,77.40
2017-09-04T06:28:54.201Z,77.60
2017-09-04T06:31:21.939Z,77.50
2017-09-04T06:33:50.072Z,77.70
2017-09-04T06:36:17.605Z,77.50
2017-09-04T06:38:45.320Z,77.50
2017-09-04T06:41:12.903Z,77.60
2017-09-04T06:43:40.373Z,77.30
2017-09-04T06:46:07.885Z,77.30
2017-09-04T06:48:35.363Z,77.30
2017-09-04T06:51:03.078Z,77.20
2017-09-04T06:53:30.545Z,77.30
2017-09-04T06:55:58.001Z,77.30
2017-09-04T06:58:25.570Z,77.10
2017-09-04T07:00:53.454Z,77.00
2017-09-04T07:03:20.920Z,77.10
2017-09-04T07:05:48.391Z,76.80
2017-09-04T07:08:15.949Z,76.40
2017-09-04T07:10:43.411Z,76.10
2017-09-04T07:13:10.866Z,76.10
2017-09-04T07:15:38.376Z,75.70
2017-09-04T07:18:05.893Z,75.30
2017-09-04T07:20:33.487Z,75.10
2017-09-04T07:23:00.939Z,74.80
2017-09-04T07:25:28.435Z,74.60
2017-09-04T07:27:55.883Z,74.30
2017-09-04T07:30:23.323Z,74.10
2017-09-04T07:32:50.848Z,73.90
2017-09-04T07:35:18.318Z,73.30
2017-09-04T07:37:46.346Z,73.10
2017-09-04T07:40:13.905Z,73.00
2017-09-04T07:42:41.358Z,72.80
2017-09-04T07:45:08.796Z,72.70
2017-09-04T07:47:36.251Z,72.70
2017-09-04T07:50:03.746Z,72.50
2017-09-04T07:52:31.261Z,72.10
2017-09-04T07:54:58.707Z,72.00
2017-09-04T07:57:26.293Z,72.20
2017-09-04T07:59:53.752Z,71.80
2017-09-04T08:02:21.182Z,71.40
2017-09-04T08:04:48.689Z,71.40
2017-09-04T08:07:16.367Z,71.40
2017-09-04T08:09:43.952Z,71.20
2017-09-04T08:12:11.417Z,70.40
2017-09-04T08:14:38.901Z,70.10
2017-09-04T08:17:06.389Z,70.30
2017-09-04T08:19:33.880Z,70.10
2017-09-04T08:22:01.371Z,69.70
2017-09-04T08:24:28.808Z,69.70
2017-09-04T08:26:56.367Z,69.80
2017-09-04T08:29:23.820Z,69.50
2017-09-04T08:31:51.297Z,68.90
2017-09-04T08:34:18.731Z,68.80
2017-09-04T08:36:46.201Z,68.20
2017-09-04T08:39:13.646Z,67.50
2017-09-04T08:41:41.120Z,67.10
2017-09-04T08:44:09.681Z,66.90
2017-09-04T08:46:37.171Z,66.50
2017-09-04T08:49:04.879Z,65.90
2017-09-04T08:51:32.309Z,65.80
2017-09-04T08:53:59.770Z,65.80
2017-09-04T08:56:27.257Z,65.80
2017-09-04T08:58:54.735Z,66.70
2017-09-04T09:01:22.254Z,67.30
2017-09-04T09:03:49.694Z,67.40
2017-09-04T09:06:17.144Z,66.90
2017-09-04T09:08:44.610Z,67.00
2017-09-04T09:11:12.072Z,66.80
2017-09-04T09:13:39.499Z,66.20
2017-09-04T09:16:07.028Z,65.40
2017-09-04T09:18:34.478Z,65.00
2017-09-04T09:21:01.936Z,65.00
2017-09-04T09:23:29.651Z,64.40
2017-09-04T09:25:57.110Z,64.00
2017-09-04T09:28:24.726Z,63.80
2017-09-04T09:30:52.543Z,62.60
2017-09-04T09:33:19.988Z,62.20
2017-09-04T09:35:47.502Z,61.80
2017-09-04T09:38:14.999Z,60.20
2017-09-04T09:40:42.466Z,58.80
2017-09-04T09:43:09.896Z,58.60
2017-09-04T09:45:37.560Z,58.20
2017-09-04T09:48:05.046Z,57.30
2017-09-04T09:50:32.530Z,56.70
2017-09-04T09:53:00.030Z,56.00
2017-09-04T09:55:27.611Z,55.60
2017-09-04T09:57:55.049Z,54.70
2017-09-04T10:00:22.549Z,53.40
2017-09-04T10:02:49.967Z,52.90
2017-09-04T10:05:17.390Z,53.20
2017-09-04T10:07:44.939Z,53.10
2017-09-04T10:10:12.392Z,53.10
2017-09-04T10:12:39.846Z,53.30
2017-09-04T10:15:07.807Z,53.50
2017-09-04T10:17:35.315Z,53.90
2017-09-04T10:20:02.861Z,54.20
2017-09-04T10:22:30.372Z,55.00
2017-09-04T10:24:58.086Z,55.30
2017-09-04T10:27:25.587Z,54.90
2017-09-04T10:29:53.390Z,55.00
2017-09-04T10:32:21.273Z,55.50
2017-09-04T10:34:48.756Z,55.50
2017-09-04T10:37:16.266Z,55.80
2017-09-04T10:39:43.735Z,55.00
2017-09-04T10:42:11.216Z,54.60
2017-09-04T10:44:38.667Z,54.70
2017-09-04T10:47:06.108Z,54.20
2017-09-04T10:49:33.606Z,54.00
2017-09-04T10:52:02.170Z,54.40
2017-09-04T10:54:29.603Z,54.40
2017-09-04T10:56:57.115Z,53.90
2017-09-04T10:59:24.568Z,54.30
2017-09-04T11:01:52.011Z,54.30
2017-09-04T11:04:19.458Z,54.30
2017-09-04T11:06:46.884Z,54.30
2017-09-04T11:09:14.335Z,54.60
2017-09-04T11:11:41.839Z,55.00
2017-09-04T11:14:09.369Z,55.40
2017-09-04T11:16:36.911Z,55.50
2017-09-04T11:19:04.398Z,55.20
2017-09-04T11:21:31.819Z,55.50
2017-09-04T11:23:59.307Z,55.30
2017-09-04T11:26:26.751Z,55.30
2017-09-04T11:28:54.189Z,55.20
2017-09-04T11:31:21.954Z,55.40
2017-09-04T11:33:49.417Z,55.30
2017-09-04T11:36:16.868Z,55.20
2017-09-04T11:38:44.331Z,55.10
2017-09-04T11:41:11.810Z,54.90
2017-09-04T11:43:39.290Z,54.40
2017-09-04T11:46:06.917Z,53.90
2017-09-04T11:48:34.392Z,54.20
2017-09-04T11:51:01.868Z,53.90
2017-09-04T11:53:29.321Z,53.50
2017-09-04T11:55:56.762Z,53.20
2017-09-04T11:58:24.227Z,53.20
2017-09-04T12:00:51.683Z,52.80
2017-09-04T12:03:19.172Z,52.70
2017-09-04T12:05:46.626Z,53.20
2017-09-04T12:08:14.053Z,52.80
2017-09-04T12:10:41.556Z,53.20
2017-09-04T12:13:09.710Z,53.20
2017-09-04T12:15:37.193Z,53.80
2017-09-04T12:18:04.889Z,51.90
2017-09-04T12:20:32.391Z,51.50
2017-09-04T12:22:59.852Z,51.20
2017-09-04T12:25:27.333Z,50.80
2017-09-04T12:27:54.825Z,50.80
2017-09-04T12:30:22.272Z,49.70
2017-09-04T12:32:49.751Z,49.90
2017-09-04T12:35:17.212Z,49.50
2017-09-04T12:37:44.650Z,49.00
2017-09-04T12:40:12.218Z,48.80
2017-09-04T12:42:39.694Z,47.90
2017-09-04T12:45:07.146Z,49.20
2017-09-04T12:47:34.578Z,48.90
2017-09-04T12:50:02.083Z,49.30
2017-09-04T12:52:29.510Z,49.50
2017-09-04T12:54:56.955Z,48.90
2017-09-04T12:57:24.431Z,49.00
2017-09-04T12:59:51.885Z,49.10
2017-09-04T13:02:19.578Z,48.60
2017-09-04T13:04:47.015Z,49.00
2017-09-04T13:07:14.460Z,48.30
2017-09-04T13:09:41.931Z,48.10
2017-09-04T13:12:14.999Z,48.10
2017-09-04T13:14:50.080Z,48.50
2017-09-04T13:17:23.353Z,49.70
2017-09-04T13:19:56.551Z,48.80
2017-09-04T13:22:29.591Z,49.40
2017-09-04T13:25:02.706Z,49.30
2017-09-04T13:27:35.951Z,49.20
2017-09-04T13:30:09.458Z,50.10
2017-09-04T13:32:42.698Z,49.60
2017-09-04T13:35:15.865Z,49.30
2017-09-04T13:37:49.543Z,49.50
2017-09-04T13:53:51.348Z,50.80
2017-09-04T14:09:50.863Z,49.80
2017-09-04T14:12:38.454Z,50.20
2017-09-04T14:15:11.595Z,50.70
2017-09-04T14:31:03.701Z,51.10
2017-09-04T14:33:31.146Z,51.70
2017-09-04T14:35:58.612Z,51.50
2017-09-04T14:38:27.088Z,51.30
2017-09-04T14:41:05.366Z,51.90
2017-09-04T14:56:56.357Z,52.80
2017-09-04T14:59:23.871Z,52.80
2017-09-04T15:01:51.462Z,52.90
2017-09-04T15:04:21.035Z,52.80
2017-09-04T15:06:48.514Z,53.40
2017-09-04T15:09:15.951Z,53.80
2017-09-04T15:11:43.440Z,53.70
2017-09-04T15:14:10.905Z,53.90
2017-09-04T15:16:38.387Z,54.30
2017-09-04T15:19:05.869Z,54.80
2017-09-04T15:21:33.331Z,54.90
2017-09-04T15:24:00.778Z,55.20
2017-09-04T15:26:28.232Z,55.40
2017-09-04T15:28:55.665Z,55.50
2017-09-04T15:31:23.834Z,56.10
2017-09-04T15:33:51.301Z,56.00
2017-09-04T15:36:18.743Z,56.00
2017-09-04T15:38:46.186Z,55.70
2017-09-04T15:41:13.833Z,55.70
2017-09-04T15:43:41.298Z,55.70
2017-09-04T15:46:10.312Z,55.70
2017-09-04T15:48:39.508Z,55.80
2017-09-04T15:51:06.942Z,55.60
2017-09-04T15:53:34.390Z,55.60
2017-09-04T15:56:02.217Z,55.70
2017-09-04T15:58:29.664Z,55.70
2017-09-04T16:00:57.144Z,56.00
2017-09-04T16:03:24.639Z,56.00
2017-09-04T16:19:26.051Z,55.60
2017-09-04T16:21:53.476Z,55.90
2017-09-04T16:24:23.373Z,56.10
2017-09-04T16:40:19.433Z,55.50
2017-09-04T16:43:03.552Z,54.90
2017-09-04T16:45:50.986Z,55.00
2017-09-04T16:48:24.044Z,54.30
2017-09-04T16:50:52.319Z,54.50
2017-09-04T16:53:19.736Z,54.40
2017-09-04T16:55:52.974Z,54.20
2017-09-04T16:58:20.454Z,53.90
2017-09-04T17:00:48.432Z,53.90
2017-09-04T17:03:15.899Z,54.00
2017-09-04T17:05:43.335Z,54.10
2017-09-04T17:08:10.971Z,54.40
2017-09-04T17:10:40.084Z,54.50
2017-09-04T17:13:07.534Z,54.80
2017-09-04T17:15:50.046Z,54.80
2017-09-04T17:18:21.093Z,55.50
2017-09-04T17:20:49.291Z,56.20
2017-09-04T17:23:29.722Z,56.60
2017-09-04T17:25:57.176Z,56.80
2017-09-04T17:28:24.608Z,57.10
2017-09-04T17:30:52.265Z,57.30
2017-09-04T17:33:19.658Z,57.60
2017-09-04T17:35:47.079Z,57.80
2017-09-04T17:38:14.521Z,58.00
2017-09-04T17:40:41.955Z,58.10
2017-09-04T17:43:09.416Z,58.20
2017-09-04T17:45:36.991Z,58.30
2017-09-04T17:48:05.545Z,58.10
2017-09-04T17:50:32.986Z,58.30
2017-09-04T17:53:01.884Z,58.30
2017-09-04T17:55:29.300Z,58.20
2017-09-04T17:57:56.768Z,58.50
2017-09-04T18:00:24.190Z,58.60
2017-09-04T18:02:51.692Z,58.80
2017-09-04T18:05:19.140Z,58.70
2017-09-04T18:07:46.564Z,58.70
2017-09-04T18:10:13.980Z,58.80
2017-09-04T18:12:41.621Z,58.90
2017-09-04T18:15:09.039Z,59.00
2017-09-04T18:17:36.456Z,58.90
2017-09-04T18:20:03.893Z,58.60
2017-09-04T18:22:31.316Z,58.60
2017-09-04T18:24:58.737Z,58.30
2017-09-04T18:27:26.393Z,58.00
2017-09-04T18:29:53.816Z,57.90
2017-09-04T18:32:21.245Z,57.60
2017-09-04T18:34:48.877Z,57.50
2017-09-04T18:37:16.321Z,57.60
2017-09-04T18:39:43.731Z,57.80
2017-09-04T18:42:11.376Z,57.70
2017-09-04T18:44:38.805Z,57.60
2017-09-04T18:47:06.231Z,57.80
2017-09-04T18:49:33.658Z,57.80
2017-09-04T18:52:01.082Z,57.80
2017-09-04T18:54:28.519Z,58.10
2017-09-04T18:56:56.139Z,58.30
2017-09-04T18:59:23.560Z,58.70
2017-09-04T19:01:50.987Z,58.80
2017-09-04T19:04:18.456Z,58.90
2017-09-04T19:06:45.867Z,59.00
2017-09-04T19:09:13.285Z,59.00
2017-09-04T19:11:40.756Z,59.00
2017-09-04T19:14:08.182Z,59.10
2017-09-04T19:16:35.598Z,59.20
2017-09-04T19:19:03.536Z,59.20
2017-09-04T19:21:30.966Z,59.20
2017-09-04T19:23:58.390Z,59.50
2017-09-04T19:26:25.835Z,59.50
2017-09-04T19:28:53.284Z,59.50
2017-09-04T19:31:33.822Z,59.40
2017-09-04T19:34:01.240Z,59.60
2017-09-04T19:36:28.672Z,59.70
2017-09-04T19:38:56.108Z,59.70
2017-09-04T19:41:23.533Z,59.60
2017-09-04T19:43:50.945Z,59.50
2017-09-04T19:46:18.589Z,59.40
2017-09-04T19:48:46.012Z,59.30
2017-09-04T19:51:13.436Z,59.40
2017-09-04T19:59:22.999Z,59.40
2017-09-04T20:01:50.425Z,59.60
2017-09-04T20:04:17.855Z,59.90
2017-09-04T20:09:22.095Z,60.50
2017-09-04T20:11:49.524Z,60.60
2017-09-04T20:14:16.950Z,60.70
2017-09-04T20:16:44.381Z,60.90
2017-09-04T20:19:12.539Z,61.00
2017-09-04T20:21:39.973Z,61.00
2017-09-04T20:24:07.407Z,61.10
2017-09-04T20:26:34.826Z,61.30
2017-09-04T20:29:02.242Z,61.30
2017-09-04T20:31:29.911Z,61.50
2017-09-04T20:33:57.333Z,61.60
2017-09-04T20:36:24.756Z,61.60
2017-09-04T20:38:52.447Z,61.80
2017-09-04T20:41:19.884Z,61.90
2017-09-04T20:43:47.309Z,61.90
2017-09-04T20:46:15.716Z,62.00
2017-09-04T20:48:43.135Z,62.20
2017-09-04T20:51:10.577Z,62.30
2017-09-04T20:53:38.018Z,62.50
2017-09-04T20:56:05.441Z,62.70
2017-09-04T20:58:32.871Z,62.80
2017-09-04T21:01:01.083Z,63.00
2017-09-04T21:03:28.512Z,63.10
2017-09-04T21:05:55.954Z,63.10
2017-09-04T21:08:23.408Z,63.30
2017-09-04T21:10:50.844Z,63.40
2017-09-04T21:13:18.267Z,63.50
2017-09-04T21:15:45.699Z,63.60
2017-09-04T21:18:13.134Z,63.70
2017-09-04T21:20:40.556Z,63.60
2017-09-04T21:23:08.451Z,63.70
2017-09-04T21:25:35.864Z,63.90
2017-09-04T21:28:03.289Z,64.00
2017-09-04T21:30:30.742Z,64.10
2017-09-04T21:32:58.172Z,64.10
2017-09-04T21:35:25.602Z,64.20
2017-09-04T21:37:53.158Z,64.20
2017-09-04T21:40:20.760Z,64.20
2017-09-04T21:42:48.187Z,64.40
2017-09-04T21:45:15.615Z,64.40
2017-09-04T21:47:43.045Z,64.50
2017-09-04T21:50:10.464Z,64.60
2017-09-04T21:52:38.191Z,64.80
2017-09-04T21:55:05.619Z,65.00
2017-09-04T21:57:33.052Z,65.10
2017-09-04T22:00:00.472Z,65.30
2017-09-04T22:02:27.900Z,65.50
2017-09-04T22:04:55.317Z,65.40
2017-09-04T22:07:22.866Z,65.30
2017-09-04T22:09:50.360Z,65.30
2017-09-04T22:12:17.789Z,65.50
2017-09-04T22:14:45.227Z,65.60
2017-09-04T22:17:12.650Z,65.70
2017-09-04T22:19:40.067Z,65.70
2017-09-04T22:22:07.611Z,65.80
2017-09-04T22:24:35.043Z,65.80
2017-09-04T22:27:02.868Z,65.90
2017-09-04T22:29:30.291Z,66.00
2017-09-04T22:31:57.717Z,66.00
2017-09-04T22:34:25.135Z,66.00
2017-09-04T22:36:52.574Z,66.20
2017-09-04T22:39:20.006Z,66.20
2017-09-04T22:41:47.420Z,66.10
2017-09-04T22:44:15.100Z,66.20
2017-09-04T22:46:42.540Z,66.30
2017-09-04T22:49:09.954Z,66.30
2017-09-04T22:51:37.406Z,66.60
2017-09-04T22:54:04.824Z,66.80
2017-09-04T22:56:32.257Z,66.60
2017-09-04T22:58:59.701Z,66.60
2017-09-04T23:01:27.146Z,66.70
2017-09-04T23:03:54.578Z,66.70
2017-09-04T23:06:22.318Z,66.80
2017-09-04T23:08:49.734Z,67.00
2017-09-04T23:11:17.178Z,67.10
2017-09-04T23:13:44.631Z,67.20
2017-09-04T23:16:12.094Z,67.40
2017-09-04T23:18:39.534Z,67.30
2017-09-04T23:21:06.972Z,67.50
2017-09-04T23:23:34.425Z,67.50
2017-09-04T23:26:01.972Z,67.80
2017-09-04T23:28:29.403Z,68.20
2017-09-04T23:30:56.870Z,68.30
2017-09-04T23:33:24.333Z,68.40
2017-09-04T23:35:51.746Z,68.60
2017-09-04T23:38:19.214Z,68.60
2017-09-04T23:40:46.684Z,68.60
2017-09-04T23:43:14.146Z,68.70
2017-09-04T23:45:41.804Z,68.80
2017-09-04T23:48:09.269Z,68.90
2017-09-04T23:50:36.717Z,68.90
2017-09-04T23:53:04.189Z,69.00
2017-09-04T23:55:31.655Z,69.70
2017-09-04T23:57:59.271Z,69.70
